createdAt,value
2019-05-29T00:00:08.324Z,3.08
2019-05-29T00:02:36.786Z,2.65
2019-05-29T00:05:07.984Z,3.98
2019-05-29T00:07:36.836Z,3.70
2019-05-29T00:10:08.821Z,3.58
2019-05-29T00:12:37.663Z,4.08
2019-05-29T00:15:06.330Z,3.85
2019-05-29T00:17:34.708Z,3.40
2019-05-29T00:20:03.190Z,4.30
2019-05-29T00:22:33.095Z,3.67
2019-05-29T00:25:03.025Z,3.80
2019-05-29T00:27:31.482Z,4.40
2019-05-29T00:29:59.898Z,4.50
2019-05-29T00:32:28.286Z,5.40
2019-05-29T00:34:56.729Z,4.62
2019-05-29T00:37:25.110Z,4.83
2019-05-29T00:39:53.517Z,5.40
2019-05-29T00:42:21.912Z,5.35
2019-05-29T00:44:50.399Z,4.78
2019-05-29T00:47:18.787Z,5.90
2019-05-29T00:49:47.558Z,6.58
2019-05-29T00:52:16.602Z,6.58
2019-05-29T00:54:45.233Z,6.83
2019-05-29T00:57:15.379Z,6.00
2019-05-29T00:59:43.723Z,5.12
2019-05-29T01:02:13.843Z,5.37
2019-05-29T01:04:42.253Z,5.35
2019-05-29T01:07:12.206Z,5.63
2019-05-29T01:09:42.464Z,5.58
2019-05-29T01:12:10.881Z,6.20
2019-05-29T01:14:49.725Z,5.63
2019-05-29T01:17:12.193Z,5.67
2019-05-29T01:19:40.930Z,6.55
2019-05-29T01:22:09.325Z,7.50
2019-05-29T01:24:37.743Z,7.03
2019-05-29T01:27:06.176Z,5.92
2019-05-29T01:29:34.580Z,6.15
2019-05-29T01:32:03.099Z,6.22
2019-05-29T01:34:31.680Z,7.25
2019-05-29T01:37:01.608Z,7.58
2019-05-29T01:39:30.009Z,7.80
2019-05-29T01:41:58.564Z,7.47
2019-05-29T01:44:27.803Z,7.92
2019-05-29T01:46:56.457Z,8.50
2019-05-29T01:49:24.877Z,10.15
2019-05-29T01:51:53.368Z,7.70
2019-05-29T01:54:21.782Z,9.18
2019-05-29T01:56:50.194Z,9.68
2019-05-29T01:59:19.690Z,9.30
2019-05-29T02:01:48.095Z,9.63
2019-05-29T02:04:17.732Z,10.45
2019-05-29T02:06:46.674Z,10.13
2019-05-29T02:09:15.910Z,10.10
2019-05-29T02:11:44.382Z,10.33
2019-05-29T02:14:12.764Z,9.53
2019-05-29T02:16:42.704Z,11.50
2019-05-29T02:19:11.107Z,10.35
2019-05-29T02:21:39.517Z,9.68
2019-05-29T02:24:08.169Z,10.65
2019-05-29T02:26:36.587Z,9.58
2019-05-29T02:29:04.993Z,8.95
2019-05-29T02:31:33.405Z,9.30
2019-05-29T02:34:01.795Z,9.90
2019-05-29T02:36:30.253Z,9.10
2019-05-29T02:38:58.806Z,9.55
2019-05-29T02:41:28.483Z,9.43
2019-05-29T02:43:57.579Z,8.05
2019-05-29T02:46:28.088Z,9.70
2019-05-29T02:48:56.471Z,9.95
2019-05-29T02:51:26.507Z,8.35
2019-05-29T02:53:55.175Z,9.60
2019-05-29T02:56:24.905Z,10.15
2019-05-29T02:58:53.567Z,9.47
2019-05-29T03:01:24.035Z,9.20
2019-05-29T03:03:52.776Z,8.60
2019-05-29T03:06:22.301Z,10.03
2019-05-29T03:08:51.870Z,8.23
2019-05-29T03:11:20.262Z,9.15
2019-05-29T03:13:48.753Z,8.73
2019-05-29T03:16:17.139Z,9.03
2019-05-29T03:18:45.545Z,8.13
2019-05-29T03:21:13.933Z,9.50
2019-05-29T03:23:42.355Z,9.60
2019-05-29T03:26:12.263Z,8.00
2019-05-29T03:28:42.217Z,7.85
2019-05-29T03:31:10.627Z,9.60
2019-05-29T03:33:47.876Z,8.78
2019-05-29T03:36:10.671Z,9.38
2019-05-29T03:38:40.730Z,9.43
2019-05-29T03:41:09.206Z,8.50
2019-05-29T03:43:38.729Z,7.70
2019-05-29T03:46:26.458Z,8.75
2019-05-29T03:48:38.932Z,7.15
2019-05-29T03:51:07.368Z,8.63
2019-05-29T03:53:38.441Z,8.55
2019-05-29T03:56:07.208Z,7.33
2019-05-29T03:58:37.512Z,7.95
2019-05-29T04:01:05.991Z,8.00
2019-05-29T04:03:35.662Z,7.03
2019-05-29T04:06:05.258Z,7.12
2019-05-29T04:08:35.694Z,7.35
2019-05-29T04:11:04.853Z,7.08
2019-05-29T04:13:34.087Z,6.65
2019-05-29T04:16:03.958Z,6.33
2019-05-29T04:18:35.929Z,6.47
2019-05-29T04:21:05.149Z,6.80
2019-05-29T04:23:38.375Z,6.70
2019-05-29T04:26:08.627Z,7.20
2019-05-29T04:28:38.889Z,6.22
2019-05-29T04:31:07.156Z,6.45
2019-05-29T04:33:38.909Z,6.57
2019-05-29T04:36:07.741Z,5.67
2019-05-29T04:38:37.822Z,5.72
2019-05-29T04:41:06.265Z,5.15
2019-05-29T04:43:35.431Z,6.40
2019-05-29T04:46:04.894Z,7.25
2019-05-29T04:48:36.139Z,6.97
2019-05-29T04:51:05.085Z,7.08
2019-05-29T04:53:34.201Z,6.37
2019-05-29T04:56:04.410Z,6.25
2019-05-29T04:58:34.856Z,6.03
2019-05-29T05:01:05.960Z,6.42
2019-05-29T05:03:35.200Z,6.95
2019-05-29T05:06:04.634Z,5.95
2019-05-29T05:08:33.350Z,6.42
2019-05-29T05:11:02.430Z,6.47
2019-05-29T05:13:31.488Z,6.42
2019-05-29T05:16:02.198Z,6.25
2019-05-29T05:18:31.670Z,6.22
2019-05-29T05:21:00.303Z,6.75
2019-05-29T05:23:29.960Z,5.72
2019-05-29T05:25:58.469Z,6.10
2019-05-29T05:28:26.972Z,6.17
2019-05-29T05:30:55.458Z,5.15
2019-05-29T05:33:23.892Z,5.90
2019-05-29T05:35:53.828Z,6.47
2019-05-29T05:38:22.487Z,5.45
2019-05-29T05:40:51.078Z,5.00
2019-05-29T05:43:24.059Z,5.93
2019-05-29T05:45:49.676Z,5.17
2019-05-29T05:48:18.317Z,5.65
2019-05-29T05:50:46.717Z,4.83
2019-05-29T05:53:15.133Z,5.33
2019-05-29T05:55:43.554Z,5.60
2019-05-29T05:58:13.228Z,5.67
2019-05-29T06:00:43.117Z,5.17
2019-05-29T06:03:11.545Z,5.40
2019-05-29T06:05:40.281Z,5.65
2019-05-29T06:08:09.122Z,5.45
2019-05-29T06:10:38.179Z,5.97
2019-05-29T06:13:06.908Z,5.50
2019-05-29T06:15:36.416Z,5.55
2019-05-29T06:18:19.891Z,5.92
2019-05-29T06:20:35.065Z,6.00
2019-05-29T06:23:04.591Z,5.82
2019-05-29T06:25:33.865Z,5.92
2019-05-29T06:28:06.261Z,6.35
2019-05-29T06:30:36.550Z,5.67
2019-05-29T06:33:04.781Z,5.75
2019-05-29T06:35:35.868Z,6.53
2019-05-29T06:38:04.832Z,7.33
2019-05-29T06:40:42.180Z,6.60
2019-05-29T06:43:22.643Z,6.37
2019-05-29T06:45:51.177Z,5.87
2019-05-29T06:48:42.984Z,6.43
2019-05-29T06:50:58.292Z,6.08
2019-05-29T06:53:26.806Z,5.57
2019-05-29T06:55:56.847Z,6.28
2019-05-29T06:58:25.597Z,5.33
2019-05-29T07:00:54.013Z,6.05
2019-05-29T07:03:22.435Z,5.90
2019-05-29T07:05:53.083Z,5.95
2019-05-29T07:08:37.496Z,5.45
2019-05-29T07:10:53.639Z,5.20
2019-05-29T07:13:23.618Z,7.17
2019-05-29T07:15:52.027Z,5.55
2019-05-29T07:18:20.525Z,6.13
2019-05-29T07:20:48.943Z,5.58
2019-05-29T07:23:17.348Z,5.08
2019-05-29T07:25:46.131Z,6.20
2019-05-29T07:28:15.830Z,6.20
2019-05-29T07:30:57.276Z,5.75
2019-05-29T07:33:14.640Z,5.78
2019-05-29T07:35:43.609Z,5.22
2019-05-29T07:38:12.219Z,5.37
2019-05-29T07:40:42.661Z,4.80
2019-05-29T07:43:12.428Z,4.60
2019-05-29T07:45:42.125Z,4.80
2019-05-29T07:48:10.890Z,4.67
2019-05-29T07:50:40.101Z,5.90
2019-05-29T07:53:08.545Z,4.60
2019-05-29T07:55:38.316Z,4.30
2019-05-29T07:58:08.517Z,4.53
2019-05-29T08:00:59.884Z,4.62
2019-05-29T08:03:07.271Z,4.28
2019-05-29T08:05:35.671Z,4.65
2019-05-29T08:08:04.839Z,5.22
2019-05-29T08:10:33.237Z,5.50
2019-05-29T08:13:01.642Z,4.70
2019-05-29T08:15:30.060Z,4.65
2019-05-29T08:17:58.536Z,4.58
2019-05-29T08:20:27.002Z,5.10
2019-05-29T08:22:56.786Z,5.25
2019-05-29T08:25:25.480Z,5.03
2019-05-29T08:27:53.957Z,5.08
2019-05-29T08:30:22.523Z,4.63
2019-05-29T08:32:51.337Z,4.47
2019-05-29T08:35:23.484Z,4.47
2019-05-29T08:37:54.076Z,5.35
2019-05-29T08:40:22.658Z,4.70
2019-05-29T08:42:51.497Z,4.12
2019-05-29T08:45:20.293Z,4.78
2019-05-29T08:47:49.747Z,4.72
2019-05-29T08:50:20.858Z,4.57
2019-05-29T08:52:50.109Z,4.83
2019-05-29T08:55:20.468Z,4.50
2019-05-29T08:57:48.854Z,4.45
2019-05-29T09:00:19.631Z,4.15
2019-05-29T09:02:49.182Z,4.30
2019-05-29T09:05:18.029Z,3.87
2019-05-29T09:07:47.948Z,3.90
2019-05-29T09:10:18.331Z,4.50
2019-05-29T09:13:06.350Z,3.70
2019-05-29T09:15:34.919Z,4.10
2019-05-29T09:18:03.654Z,3.67
2019-05-29T09:23:02.200Z,4.78
2019-05-29T09:25:30.806Z,4.83
2019-05-29T09:27:59.300Z,4.05
2019-05-29T09:30:27.778Z,3.87
2019-05-29T09:32:56.230Z,3.47
2019-05-29T09:35:25.071Z,3.60
2019-05-29T09:37:53.530Z,5.83
2019-05-29T09:40:23.098Z,4.10
2019-05-29T09:42:51.598Z,3.97
2019-05-29T09:45:21.549Z,3.83
2019-05-29T09:47:51.552Z,4.00
2019-05-29T09:50:22.735Z,3.77
2019-05-29T09:52:50.312Z,3.93
2019-05-29T09:55:19.049Z,4.20
2019-05-29T09:57:47.519Z,3.33
2019-05-29T10:00:17.951Z,3.35
2019-05-29T10:02:46.378Z,3.42
2019-05-29T10:05:14.920Z,3.15
2019-05-29T10:07:43.339Z,3.17
2019-05-29T10:10:13.176Z,3.00
2019-05-29T10:12:41.649Z,3.20
2019-05-29T10:15:12.284Z,2.95
2019-05-29T10:17:42.177Z,3.15
2019-05-29T10:20:13.366Z,2.40
2019-05-29T10:22:43.318Z,2.95
2019-05-29T10:25:13.674Z,3.00
2019-05-29T10:27:43.299Z,2.70
2019-05-29T10:30:14.645Z,2.97
2019-05-29T10:32:44.392Z,2.80
2019-05-29T10:35:13.098Z,3.10
2019-05-29T10:37:42.797Z,3.20
2019-05-29T10:40:13.119Z,2.77
2019-05-29T10:42:42.940Z,2.43
2019-05-29T10:45:12.428Z,3.10
2019-05-29T10:47:40.846Z,3.05
2019-05-29T10:50:10.694Z,3.20
2019-05-29T10:52:39.167Z,3.25
2019-05-29T10:55:08.312Z,2.77
2019-05-29T10:57:36.795Z,2.95
2019-05-29T11:00:07.563Z,2.77
2019-05-29T11:02:35.974Z,1.92
2019-05-29T11:05:06.708Z,1.32
2019-05-29T11:07:37.838Z,0.95
2019-05-29T11:10:08.435Z,1.00
2019-05-29T11:12:39.274Z,1.60
2019-05-29T11:15:20.887Z,1.30
2019-05-29T11:17:39.553Z,1.32
2019-05-29T11:20:09.600Z,1.65
2019-05-29T11:22:38.401Z,1.72
2019-05-29T11:25:21.648Z,1.27
2019-05-29T11:27:37.825Z,1.30
2019-05-29T11:30:08.700Z,1.65
2019-05-29T11:32:37.180Z,1.70
2019-05-29T11:35:06.618Z,1.30
2019-05-29T11:37:35.087Z,1.30
2019-05-29T11:40:04.043Z,1.30
2019-05-29T11:42:33.841Z,1.00
2019-05-29T11:45:03.812Z,1.40
2019-05-29T11:47:32.457Z,1.52
2019-05-29T11:50:14.716Z,0.88
2019-05-29T11:52:42.293Z,1.33
2019-05-29T11:55:04.455Z,1.17
2019-05-29T11:57:31.521Z,1.42
2019-05-29T12:00:09.449Z,0.90
2019-05-29T12:02:31.730Z,0.88
2019-05-29T12:05:02.709Z,0.65
2019-05-29T12:07:30.314Z,0.83
2019-05-29T12:09:59.604Z,0.70
2019-05-29T12:12:28.188Z,0.82
2019-05-29T12:15:06.162Z,0.90
2019-05-29T12:17:27.152Z,0.90
2019-05-29T12:19:56.093Z,1.02
2019-05-29T12:22:24.467Z,1.00
2019-05-29T12:24:52.831Z,1.05
2019-05-29T12:27:21.244Z,1.27
2019-05-29T12:29:49.652Z,1.03
2019-05-29T12:32:18.156Z,1.40
2019-05-29T12:34:53.792Z,0.93
2019-05-29T12:37:16.816Z,1.22
2019-05-29T12:39:45.222Z,1.00
2019-05-29T12:42:13.615Z,1.23
2019-05-29T12:44:43.389Z,0.82
2019-05-29T12:47:11.797Z,0.90
2019-05-29T12:49:40.204Z,0.90
2019-05-29T12:52:09.630Z,0.80
2019-05-29T12:54:39.051Z,0.82
2019-05-29T12:57:07.545Z,0.70
2019-05-29T12:59:37.575Z,0.78
2019-05-29T13:02:06.275Z,0.62
2019-05-29T13:05:05.446Z,0.98
2019-05-29T13:07:05.039Z,0.70
2019-05-29T13:09:39.570Z,0.50
2019-05-29T13:12:08.033Z,0.50
2019-05-29T13:14:36.432Z,0.70
2019-05-29T13:17:05.272Z,0.80
2019-05-29T13:19:33.975Z,0.80
2019-05-29T13:22:03.599Z,0.80
2019-05-29T13:24:32.010Z,0.53
2019-05-29T13:27:01.758Z,0.50
2019-05-29T13:29:30.219Z,0.65
2019-05-29T13:32:02.055Z,0.60
2019-05-29T13:34:30.264Z,0.62
2019-05-29T13:37:00.821Z,0.65
2019-05-29T13:39:30.125Z,0.50
2019-05-29T13:42:03.714Z,0.60
2019-05-29T13:44:30.272Z,0.60
2019-05-29T13:47:00.226Z,0.63
2019-05-29T13:49:28.912Z,0.78
2019-05-29T13:51:59.170Z,0.50
2019-05-29T13:54:27.562Z,0.70
2019-05-29T13:56:56.049Z,0.50
2019-05-29T13:59:24.507Z,0.67
2019-05-29T14:01:53.137Z,0.95
2019-05-29T14:04:21.537Z,0.50
2019-05-29T14:06:52.944Z,0.78
2019-05-29T14:09:20.151Z,0.68
2019-05-29T14:11:48.528Z,0.75
2019-05-29T14:14:16.960Z,0.60
2019-05-29T14:16:45.346Z,0.60
2019-05-29T14:19:13.959Z,0.70
2019-05-29T14:21:42.447Z,0.80
2019-05-29T14:24:26.128Z,0.53
2019-05-29T14:26:41.827Z,0.50
2019-05-29T14:29:12.461Z,0.90
2019-05-29T14:31:42.623Z,0.70
2019-05-29T14:34:11.016Z,0.60
2019-05-29T14:36:39.416Z,0.60
2019-05-29T14:39:09.755Z,0.75
2019-05-29T14:41:38.357Z,0.60
2019-05-29T14:44:07.938Z,0.62
2019-05-29T14:46:36.345Z,0.57
2019-05-29T14:49:06.442Z,1.35
2019-05-29T14:51:34.892Z,0.80
2019-05-29T14:54:04.773Z,0.80
2019-05-29T14:56:33.512Z,0.60
2019-05-29T14:59:03.215Z,0.70
2019-05-29T15:01:32.040Z,0.68
2019-05-29T15:04:00.594Z,0.70
2019-05-29T15:06:28.997Z,0.65
2019-05-29T15:09:00.142Z,0.90
2019-05-29T15:11:28.537Z,0.68
2019-05-29T15:13:56.977Z,0.60
2019-05-29T15:16:25.432Z,0.80
2019-05-29T15:18:53.865Z,0.55
2019-05-29T15:21:22.266Z,0.60
2019-05-29T15:23:52.228Z,0.70
2019-05-29T15:26:20.730Z,0.80
2019-05-29T15:28:49.132Z,0.75
2019-05-29T15:31:17.623Z,0.50
2019-05-29T15:33:46.028Z,0.62
2019-05-29T15:36:17.049Z,0.60
2019-05-29T15:38:45.477Z,0.60
2019-05-29T15:41:14.850Z,0.60
2019-05-29T15:43:43.647Z,0.93
2019-05-29T15:46:13.399Z,0.70
2019-05-29T15:48:41.978Z,1.00
2019-05-29T15:51:10.968Z,0.78
2019-05-29T15:53:41.095Z,0.60
2019-05-29T15:56:21.682Z,0.63
2019-05-29T15:58:39.661Z,0.70
2019-05-29T16:01:09.551Z,0.60
2019-05-29T16:03:40.922Z,0.70
2019-05-29T16:06:09.758Z,0.67
2019-05-29T16:08:39.299Z,0.70
2019-05-29T16:11:08.607Z,0.60
2019-05-29T16:13:37.419Z,0.70
2019-05-29T16:16:07.219Z,0.50
2019-05-29T16:18:36.742Z,0.80
2019-05-29T16:21:05.446Z,0.60
2019-05-29T16:23:36.041Z,1.00
2019-05-29T16:26:06.062Z,0.60
2019-05-29T16:28:38.305Z,0.68
2019-05-29T16:31:06.713Z,0.60
2019-05-29T16:33:37.187Z,0.70
2019-05-29T16:36:05.721Z,0.80
2019-05-29T16:38:34.236Z,0.68
2019-05-29T16:41:02.697Z,0.78
2019-05-29T16:43:31.130Z,0.70
2019-05-29T16:45:59.517Z,0.78
2019-05-29T16:48:28.023Z,0.80
2019-05-29T16:50:56.399Z,0.80
2019-05-29T16:53:24.914Z,0.93
2019-05-29T16:55:54.476Z,0.68
2019-05-29T16:58:24.812Z,0.70
2019-05-29T17:00:53.205Z,0.80
2019-05-29T17:03:21.743Z,0.80
2019-05-29T17:05:50.091Z,1.10
2019-05-29T17:08:18.649Z,0.80
2019-05-29T17:10:47.070Z,0.70
2019-05-29T17:13:16.608Z,1.00
2019-05-29T17:15:46.659Z,0.60
2019-05-29T17:18:16.415Z,0.80
2019-05-29T17:20:46.541Z,0.82
2019-05-29T17:23:16.716Z,0.68
2019-05-29T17:25:45.201Z,1.05
2019-05-29T17:28:14.995Z,0.67
2019-05-29T17:30:43.517Z,0.70
2019-05-29T17:33:12.254Z,0.80
2019-05-29T17:35:40.656Z,0.72
2019-05-29T17:38:10.582Z,0.80
2019-05-29T17:40:38.980Z,0.80
2019-05-29T17:43:07.434Z,0.80
2019-05-29T17:45:36.360Z,0.72
2019-05-29T17:48:05.383Z,0.70
2019-05-29T17:50:33.809Z,1.12
2019-05-29T17:53:02.188Z,1.32
2019-05-29T17:55:30.611Z,1.17
2019-05-29T17:57:59.004Z,0.90
2019-05-29T18:00:27.483Z,0.70
2019-05-29T18:02:55.891Z,0.65
2019-05-29T18:05:24.752Z,0.77
2019-05-29T18:07:53.619Z,1.50
2019-05-29T18:10:24.124Z,0.90
2019-05-29T18:12:54.018Z,0.80
2019-05-29T18:15:25.555Z,1.97
2019-05-29T18:17:56.540Z,1.50
2019-05-29T18:20:25.843Z,2.00
2019-05-29T18:22:54.789Z,1.30
2019-05-29T18:25:23.991Z,1.40
2019-05-29T18:27:52.456Z,1.35
2019-05-29T18:30:22.737Z,1.30
2019-05-29T18:32:51.129Z,0.82
2019-05-29T18:35:20.656Z,0.90
2019-05-29T18:37:49.469Z,0.63
2019-05-29T18:40:20.231Z,0.88
2019-05-29T18:42:48.746Z,0.70
2019-05-29T18:45:22.407Z,0.90
2019-05-29T18:47:49.373Z,1.67
2019-05-29T18:50:19.822Z,1.30
2019-05-29T18:52:48.414Z,1.12
2019-05-29T18:55:17.358Z,1.12
2019-05-29T18:57:45.743Z,0.72
2019-05-29T19:00:14.926Z,0.70
2019-05-29T19:02:43.409Z,0.87
2019-05-29T19:05:12.049Z,0.70
2019-05-29T19:07:41.955Z,0.63
2019-05-29T19:10:10.728Z,0.68
2019-05-29T19:12:39.109Z,0.88
2019-05-29T19:15:08.139Z,0.70
2019-05-29T19:17:36.774Z,0.60
2019-05-29T19:20:06.180Z,0.50
2019-05-29T19:22:37.159Z,0.80
2019-05-29T19:25:08.838Z,0.85
2019-05-29T19:27:41.343Z,0.62
2019-05-29T19:30:11.220Z,0.80
2019-05-29T19:32:40.070Z,0.85
2019-05-29T19:35:09.267Z,1.00
2019-05-29T19:37:38.016Z,1.05
2019-05-29T19:40:10.417Z,0.85
2019-05-29T19:42:38.946Z,0.90
2019-05-29T19:45:11.238Z,0.90
2019-05-29T19:47:41.258Z,0.98
2019-05-29T19:50:11.780Z,1.05
2019-05-29T19:52:40.719Z,0.90
2019-05-29T19:55:10.073Z,0.93
2019-05-29T19:57:54.798Z,1.07
2019-05-29T20:00:10.337Z,0.80
2019-05-29T20:02:39.541Z,0.80
2019-05-29T20:05:08.057Z,0.50
2019-05-29T20:07:37.515Z,0.70
2019-05-29T20:10:08.298Z,0.70
2019-05-29T20:12:38.249Z,0.93
2019-05-29T20:15:08.771Z,1.00
2019-05-29T20:17:38.524Z,1.00
2019-05-29T20:20:08.179Z,1.27
2019-05-29T20:22:37.009Z,1.02
2019-05-29T20:25:07.253Z,1.12
2019-05-29T20:27:36.280Z,1.40
2019-05-29T20:30:07.336Z,1.37
2019-05-29T20:32:36.832Z,0.88
2019-05-29T20:35:08.593Z,1.47
2019-05-29T20:37:38.227Z,1.15
2019-05-29T20:40:07.696Z,1.45
2019-05-29T20:42:36.365Z,1.37
2019-05-29T20:45:07.118Z,1.60
2019-05-29T20:47:35.757Z,1.72
2019-05-29T20:50:12.235Z,1.85
2019-05-29T20:52:41.422Z,2.13
2019-05-29T20:55:11.591Z,1.80
2019-05-29T20:57:40.207Z,1.37
2019-05-29T21:00:12.950Z,1.60
2019-05-29T21:02:42.522Z,1.27
2019-05-29T21:05:14.745Z,1.20
2019-05-29T21:07:43.211Z,1.52
2019-05-29T21:10:13.484Z,1.50
2019-05-29T21:12:46.154Z,1.65
2019-05-29T21:15:12.538Z,1.77
2019-05-29T21:17:43.970Z,1.87
2019-05-29T21:20:14.091Z,1.47
2019-05-29T21:22:45.082Z,1.00
2019-05-29T21:25:18.560Z,1.67
2019-05-29T21:27:49.480Z,1.98
2019-05-29T21:30:20.313Z,1.40
2019-05-29T21:32:48.703Z,1.47
2019-05-29T21:35:17.106Z,1.27
2019-05-29T21:37:46.630Z,1.52
2019-05-29T21:40:16.283Z,1.50
2019-05-29T21:42:44.907Z,1.32
2019-05-29T21:45:13.492Z,1.20
2019-05-29T21:47:43.479Z,1.30
2019-05-29T21:50:13.976Z,1.20
2019-05-29T21:52:43.856Z,1.30
2019-05-29T21:55:13.024Z,1.32
2019-05-29T21:57:45.147Z,1.40
2019-05-29T22:00:14.210Z,1.82
2019-05-29T22:02:42.656Z,1.80
2019-05-29T22:05:11.338Z,1.92
2019-05-29T22:07:40.714Z,1.80
2019-05-29T22:10:09.828Z,1.10
2019-05-29T22:12:38.226Z,1.52
2019-05-29T22:15:10.109Z,1.60
2019-05-29T22:17:38.520Z,1.37
2019-05-29T22:20:16.227Z,1.72
2019-05-29T22:22:44.609Z,1.87
2019-05-29T22:25:13.429Z,1.87
2019-05-29T22:27:41.965Z,2.33
2019-05-29T22:30:10.589Z,2.00
2019-05-29T22:32:39.018Z,2.00
2019-05-29T22:35:07.722Z,1.57
2019-05-29T22:37:36.107Z,1.50
2019-05-29T22:40:06.292Z,1.53
2019-05-29T22:42:36.860Z,1.85
2019-05-29T22:45:07.989Z,2.15
2019-05-29T22:47:36.381Z,1.80
2019-05-29T22:50:07.118Z,1.95
2019-05-29T22:52:35.853Z,1.93
2019-05-29T22:55:06.293Z,1.70
2019-05-29T22:57:34.680Z,2.12
2019-05-29T23:00:04.430Z,1.90
2019-05-29T23:02:32.832Z,2.17
2019-05-29T23:05:03.656Z,1.60
2019-05-29T23:07:32.618Z,2.12
2019-05-29T23:10:01.012Z,1.95
2019-05-29T23:12:29.416Z,2.00
2019-05-29T23:14:58.503Z,1.80
2019-05-29T23:17:26.890Z,2.33
2019-05-29T23:19:56.633Z,2.27
2019-05-29T23:22:25.354Z,2.40
2019-05-29T23:24:56.769Z,2.42
2019-05-29T23:27:25.166Z,2.08
2019-05-29T23:29:54.760Z,2.33
2019-05-29T23:32:23.788Z,2.58
2019-05-29T23:34:55.049Z,2.08
2019-05-29T23:37:24.963Z,2.10
2019-05-29T23:39:53.351Z,2.45
2019-05-29T23:42:21.751Z,2.12
2019-05-29T23:44:52.130Z,1.80
2019-05-29T23:47:20.279Z,2.22
2019-05-29T23:49:48.653Z,2.40
2019-05-29T23:52:17.054Z,2.40
2019-05-29T23:54:45.447Z,2.17
2019-05-29T23:57:13.850Z,2.15
2019-05-29T23:59:42.338Z,2.25
